Terminal Aerodrome Forecast
Issued by NWS Albuquerque, NM

Home | Current Version | Previous Version | Text Only | Print | Product List | Glossary On
Versions: 1 2 3 4 5 6 7 8 9 10 11 12 13 14 15 16 17
000
FTUS45 KABQ 181100
TAFABQ
TAF
KABQ 181140Z 1812/1912 VRB06KT P6SM VCSH FEW035 BKN050
     FM181700 30010KT P6SM FEW050 BKN070
     FM182100 31021G31KT P6SM BKN080
     FM190200 32012KT P6SM SCT120
     FM190600 36008KT P6SM FEW150=

USA.gov is the U.S. government's official web portal to all federal, state and local government web resources and services.